logo
Search for airport 
image banner adimage banner adimage banner ad
image banner ad

MMEIF - Rancho El Infante

Located in Melchor Muzquiz, Mexico

ICAO - , IATA -

Data provided by Airmate  

General information

Coordinates: N28°45'52" W101°56'6"
Elevation is 3185 feet MSL.
Magnetic variation is 5° East
View others Airports in Coahuila

Operational data

Special qualification required
Current time UTC:
Current local time:
Weather at : - ( 0 km )
METAR: YCFS 180632Z AUTO 26013G29KT 170V300 0300 +TSRA SCT006 BKN012 BKN018 14/12 Q1015
View NOTAMs / SUP AIP / TFR affecting this airport [VIEW]
Communications frequencies: [VIEW]

Runways:

RWY identifierQFULength (ft)Width (ft)SurfaceLDA (ft)
30302°440454GRAS
12122°440454GRAS

Airport contact information

Address: Melchor Muzquiz Mexico

Satellite view of MMEIF